Sunny Hill, Illinois
Current Conditions -  °F | °C
As of 3:52 PM on Saturday 25 Oct 2014 (Local Time) from KMLI Reporting Station
Clear Clear  
Wind Chill: 72°   Ceiling: Unl
Heat Index: 72°   Visibility: 10mi
Dew Point: 33°   Wind: 14mph
Humidity: 24%   Direction: 310°NW
Pressure: 30"   Gusts: 20mph
Location:  41.3669°N, 90.3966°W
Report Text: KMLI 252052Z 31012G17KT 10SM CLR 22/01 A3000 RMK AO2 SLP159 T02220006 55006 $
Loading
Personal Weather Stations






























Interactive Weather Map
Tropical Storm Tracking
New forecast layout! Learn more

10-Day Weather Forecast

Advertisements
Track Severe Weather on mobile